sensor_id;sensor_type;location;lat;lon;timestamp;P1;durP1;ratioP1;P2;durP2;ratioP2
48845;SDS011;34665;51.886;5.436;2022-07-06T00:02:22;8.17;;;2.17;;
48845;SDS011;34665;51.886;5.436;2022-07-06T00:07:15;6.97;;;2.13;;
48845;SDS011;34665;51.886;5.436;2022-07-06T00:09:41;5.87;;;1.97;;
48845;SDS011;34665;51.886;5.436;2022-07-06T00:12:06;6.93;;;1.80;;
48845;SDS011;34665;51.886;5.436;2022-07-06T00:14:33;6.40;;;1.97;;
48845;SDS011;34665;51.886;5.436;2022-07-06T00:16:58;7.43;;;2.33;;
48845;SDS011;34665;51.886;5.436;2022-07-06T00:19:24;5.45;;;2.50;;
48845;SDS011;34665;51.886;5.436;2022-07-06T00:21:50;7.35;;;2.13;;
48845;SDS011;34665;51.886;5.436;2022-07-06T00:24:15;5.63;;;1.70;;
48845;SDS011;34665;51.886;5.436;2022-07-06T00:26:44;7.47;;;2.00;;
48845;SDS011;34665;51.886;5.436;2022-07-06T00:29:09;3.70;;;2.00;;
48845;SDS011;34665;51.886;5.436;2022-07-06T00:31:35;7.97;;;2.00;;
48845;SDS011;34665;51.886;5.436;2022-07-06T00:34:01;3.00;;;1.70;;
48845;SDS011;34665;51.886;5.436;2022-07-06T00:36:27;9.60;;;2.43;;
48845;SDS011;34665;51.886;5.436;2022-07-06T00:38:53;5.88;;;2.00;;
48845;SDS011;34665;51.886;5.436;2022-07-06T00:41:18;5.40;;;1.70;;
48845;SDS011;34665;51.886;5.436;2022-07-06T00:43:48;5.40;;;1.53;;
48845;SDS011;34665;51.886;5.436;2022-07-06T00:46:17;5.53;;;2.00;;
48845;SDS011;34665;51.886;5.436;2022-07-06T00:48:44;4.60;;;2.10;;
48845;SDS011;34665;51.886;5.436;2022-07-06T00:51:10;7.32;;;2.08;;
48845;SDS011;34665;51.886;5.436;2022-07-06T00:53:37;5.87;;;2.03;;
48845;SDS011;34665;51.886;5.436;2022-07-06T00:56:03;8.23;;;2.20;;
48845;SDS011;34665;51.886;5.436;2022-07-06T00:58:29;6.72;;;1.63;;
48845;SDS011;34665;51.886;5.436;2022-07-06T01:00:54;3.13;;;1.60;;
48845;SDS011;34665;51.886;5.436;2022-07-06T01:03:21;6.43;;;1.88;;
48845;SDS011;34665;51.886;5.436;2022-07-06T01:05:46;4.13;;;1.70;;
48845;SDS011;34665;51.886;5.436;2022-07-06T01:08:12;5.00;;;1.80;;
48845;SDS011;34665;51.886;5.436;2022-07-06T01:10:37;7.85;;;1.70;;
48845;SDS011;34665;51.886;5.436;2022-07-06T01:13:03;6.47;;;2.42;;
48845;SDS011;34665;51.886;5.436;2022-07-06T01:15:29;5.05;;;1.85;;
48845;SDS011;34665;51.886;5.436;2022-07-06T01:17:55;4.43;;;2.47;;
48845;SDS011;34665;51.886;5.436;2022-07-06T01:20:27;5.93;;;2.13;;
48845;SDS011;34665;51.886;5.436;2022-07-06T01:22:54;5.17;;;1.63;;
48845;SDS011;34665;51.886;5.436;2022-07-06T01:25:22;8.87;;;2.43;;
48845;SDS011;34665;51.886;5.436;2022-07-06T01:27:47;4.95;;;2.28;;
48845;SDS011;34665;51.886;5.436;2022-07-06T01:30:15;6.45;;;1.90;;
48845;SDS011;34665;51.886;5.436;2022-07-06T01:32:42;9.40;;;2.40;;
48845;SDS011;34665;51.886;5.436;2022-07-06T01:35:09;5.07;;;1.90;;
48845;SDS011;34665;51.886;5.436;2022-07-06T01:37:36;4.27;;;1.87;;
48845;SDS011;34665;51.886;5.436;2022-07-06T01:40:03;5.90;;;2.42;;
48845;SDS011;34665;51.886;5.436;2022-07-06T01:42:31;4.33;;;2.47;;
48845;SDS011;34665;51.886;5.436;2022-07-06T01:44:56;9.57;;;2.40;;
48845;SDS011;34665;51.886;5.436;2022-07-06T01:47:22;8.07;;;2.03;;
48845;SDS011;34665;51.886;5.436;2022-07-06T01:49:49;6.13;;;2.13;;
48845;SDS011;34665;51.886;5.436;2022-07-06T01:52:15;8.75;;;2.78;;
48845;SDS011;34665;51.886;5.436;2022-07-06T01:54:40;6.20;;;2.00;;
48845;SDS011;34665;51.886;5.436;2022-07-06T01:59:33;8.67;;;2.20;;
48845;SDS011;34665;51.886;5.436;2022-07-06T02:01:58;6.83;;;1.90;;
48845;SDS011;34665;51.886;5.436;2022-07-06T02:04:24;5.85;;;2.35;;
48845;SDS011;34665;51.886;5.436;2022-07-06T02:06:49;5.60;;;2.13;;
48845;SDS011;34665;51.886;5.436;2022-07-06T02:09:15;5.90;;;2.57;;
48845;SDS011;34665;51.886;5.436;2022-07-06T02:11:42;3.33;;;1.93;;
48845;SDS011;34665;51.886;5.436;2022-07-06T02:14:08;7.03;;;2.03;;
48845;SDS011;34665;51.886;5.436;2022-07-06T02:16:36;8.07;;;2.57;;
48845;SDS011;34665;51.886;5.436;2022-07-06T02:19:02;6.55;;;1.92;;
48845;SDS011;34665;51.886;5.436;2022-07-06T02:21:28;6.15;;;2.08;;
48845;SDS011;34665;51.886;5.436;2022-07-06T02:23:54;6.78;;;2.90;;
48845;SDS011;34665;51.886;5.436;2022-07-06T02:26:19;6.70;;;2.45;;
48845;SDS011;34665;51.886;5.436;2022-07-06T02:28:46;5.10;;;1.63;;
48845;SDS011;34665;51.886;5.436;2022-07-06T02:31:13;5.70;;;1.90;;
48845;SDS011;34665;51.886;5.436;2022-07-06T02:33:40;4.83;;;2.10;;
48845;SDS011;34665;51.886;5.436;2022-07-06T02:36:06;4.77;;;1.90;;
48845;SDS011;34665;51.886;5.436;2022-07-06T02:38:33;6.30;;;2.40;;
48845;SDS011;34665;51.886;5.436;2022-07-06T02:40:59;7.57;;;1.77;;
48845;SDS011;34665;51.886;5.436;2022-07-06T02:43:26;5.37;;;2.00;;
48845;SDS011;34665;51.886;5.436;2022-07-06T02:45:51;5.72;;;2.10;;
48845;SDS011;34665;51.886;5.436;2022-07-06T02:48:17;6.30;;;2.00;;
48845;SDS011;34665;51.886;5.436;2022-07-06T02:50:44;9.27;;;1.60;;
48845;SDS011;34665;51.886;5.436;2022-07-06T02:53:10;7.47;;;1.90;;
48845;SDS011;34665;51.886;5.436;2022-07-06T02:55:36;7.63;;;2.08;;
48845;SDS011;34665;51.886;5.436;2022-07-06T02:58:05;7.43;;;2.27;;
48845;SDS011;34665;51.886;5.436;2022-07-06T03:00:31;5.32;;;1.60;;
48845;SDS011;34665;51.886;5.436;2022-07-06T03:02:56;9.35;;;2.05;;
48845;SDS011;34665;51.886;5.436;2022-07-06T03:05:22;7.05;;;1.98;;
48845;SDS011;34665;51.886;5.436;2022-07-06T03:07:48;3.70;;;1.63;;
48845;SDS011;34665;51.886;5.436;2022-07-06T03:10:15;9.30;;;2.27;;
48845;SDS011;34665;51.886;5.436;2022-07-06T03:12:40;7.18;;;1.80;;
48845;SDS011;34665;51.886;5.436;2022-07-06T03:15:06;7.23;;;2.87;;
48845;SDS011;34665;51.886;5.436;2022-07-06T03:17:37;3.93;;;1.57;;
48845;SDS011;34665;51.886;5.436;2022-07-06T03:20:04;5.40;;;1.70;;
48845;SDS011;34665;51.886;5.436;2022-07-06T03:24:57;2.88;;;1.95;;
48845;SDS011;34665;51.886;5.436;2022-07-06T03:27:23;6.95;;;1.88;;
48845;SDS011;34665;51.886;5.436;2022-07-06T03:29:48;7.15;;;1.88;;
48845;SDS011;34665;51.886;5.436;2022-07-06T03:32:15;4.22;;;1.58;;
48845;SDS011;34665;51.886;5.436;2022-07-06T03:37:07;3.30;;;1.50;;
48845;SDS011;34665;51.886;5.436;2022-07-06T03:39:36;3.50;;;1.47;;
48845;SDS011;34665;51.886;5.436;2022-07-06T03:42:02;2.60;;;1.23;;
48845;SDS011;34665;51.886;5.436;2022-07-06T03:44:30;5.10;;;1.70;;
48845;SDS011;34665;51.886;5.436;2022-07-06T03:46:55;5.50;;;1.90;;
48845;SDS011;34665;51.886;5.436;2022-07-06T03:49:22;4.10;;;1.33;;
48845;SDS011;34665;51.886;5.436;2022-07-06T03:51:52;5.80;;;1.70;;
48845;SDS011;34665;51.886;5.436;2022-07-06T03:54:18;4.68;;;1.40;;
48845;SDS011;34665;51.886;5.436;2022-07-06T03:56:44;7.23;;;1.90;;
48845;SDS011;34665;51.886;5.436;2022-07-06T03:59:13;3.77;;;1.77;;
48845;SDS011;34665;51.886;5.436;2022-07-06T04:01:39;5.72;;;2.28;;
48845;SDS011;34665;51.886;5.436;2022-07-06T04:04:05;4.40;;;1.60;;
48845;SDS011;34665;51.886;5.436;2022-07-06T04:06:32;7.00;;;2.70;;
48845;SDS011;34665;51.886;5.436;2022-07-06T04:09:01;6.33;;;2.00;;
48845;SDS011;34665;51.886;5.436;2022-07-06T04:11:27;7.07;;;1.52;;
48845;SDS011;34665;51.886;5.436;2022-07-06T04:13:52;7.60;;;1.70;;
48845;SDS011;34665;51.886;5.436;2022-07-06T04:16:21;6.00;;;2.33;;
48845;SDS011;34665;51.886;5.436;2022-07-06T04:18:46;4.27;;;1.57;;
48845;SDS011;34665;51.886;5.436;2022-07-06T04:21:12;3.90;;;1.60;;
48845;SDS011;34665;51.886;5.436;2022-07-06T04:23:37;4.82;;;1.55;;
48845;SDS011;34665;51.886;5.436;2022-07-06T04:26:05;5.97;;;1.83;;
48845;SDS011;34665;51.886;5.436;2022-07-06T04:28:33;5.43;;;1.73;;
48845;SDS011;34665;51.886;5.436;2022-07-06T04:30:59;5.55;;;1.80;;
48845;SDS011;34665;51.886;5.436;2022-07-06T04:33:24;7.37;;;2.80;;
48845;SDS011;34665;51.886;5.436;2022-07-06T04:35:50;5.00;;;2.05;;
48845;SDS011;34665;51.886;5.436;2022-07-06T04:38:18;5.77;;;1.57;;
48845;SDS011;34665;51.886;5.436;2022-07-06T04:40:46;6.03;;;2.00;;
48845;SDS011;34665;51.886;5.436;2022-07-06T04:43:14;2.80;;;1.67;;
48845;SDS011;34665;51.886;5.436;2022-07-06T04:45:42;6.43;;;1.97;;
48845;SDS011;34665;51.886;5.436;2022-07-06T04:48:09;7.83;;;1.70;;
48845;SDS011;34665;51.886;5.436;2022-07-06T04:50:35;4.45;;;1.98;;
48845;SDS011;34665;51.886;5.436;2022-07-06T04:53:03;3.40;;;1.70;;
48845;SDS011;34665;51.886;5.436;2022-07-06T04:55:30;6.60;;;2.37;;
48845;SDS011;34665;51.886;5.436;2022-07-06T04:57:56;3.70;;;1.70;;
48845;SDS011;34665;51.886;5.436;2022-07-06T05:00:22;5.68;;;1.63;;
48845;SDS011;34665;51.886;5.436;2022-07-06T05:02:49;5.93;;;1.93;;
48845;SDS011;34665;51.886;5.436;2022-07-06T05:05:16;5.33;;;2.00;;
48845;SDS011;34665;51.886;5.436;2022-07-06T05:07:42;5.63;;;2.22;;
48845;SDS011;34665;51.886;5.436;2022-07-06T05:12:36;3.33;;;1.73;;
48845;SDS011;34665;51.886;5.436;2022-07-06T05:15:03;5.40;;;1.73;;
48845;SDS011;34665;51.886;5.436;2022-07-06T05:17:29;2.97;;;1.90;;
48845;SDS011;34665;51.886;5.436;2022-07-06T05:19:58;3.77;;;1.50;;
48845;SDS011;34665;51.886;5.436;2022-07-06T05:22:23;3.07;;;1.97;;
48845;SDS011;34665;51.886;5.436;2022-07-06T05:24:51;4.33;;;2.17;;
48845;SDS011;34665;51.886;5.436;2022-07-06T05:27:16;4.68;;;1.30;;
48845;SDS011;34665;51.886;5.436;2022-07-06T05:29:42;2.27;;;1.47;;
48845;SDS011;34665;51.886;5.436;2022-07-06T05:32:08;4.63;;;1.60;;
48845;SDS011;34665;51.886;5.436;2022-07-06T05:34:33;5.03;;;1.70;;
48845;SDS011;34665;51.886;5.436;2022-07-06T05:37:02;4.00;;;1.53;;
48845;SDS011;34665;51.886;5.436;2022-07-06T05:39:28;3.92;;;1.40;;
48845;SDS011;34665;51.886;5.436;2022-07-06T05:41:53;2.73;;;1.60;;
48845;SDS011;34665;51.886;5.436;2022-07-06T05:44:19;9.32;;;1.90;;
48845;SDS011;34665;51.886;5.436;2022-07-06T05:46:45;3.35;;;2.05;;
48845;SDS011;34665;51.886;5.436;2022-07-06T05:49:12;4.10;;;1.57;;
48845;SDS011;34665;51.886;5.436;2022-07-06T05:51:56;8.57;;;1.67;;
48845;SDS011;34665;51.886;5.436;2022-07-06T05:54:22;4.50;;;1.20;;
48845;SDS011;34665;51.886;5.436;2022-07-06T05:56:48;4.53;;;1.35;;
48845;SDS011;34665;51.886;5.436;2022-07-06T05:59:13;3.08;;;1.10;;
48845;SDS011;34665;51.886;5.436;2022-07-06T06:01:40;4.00;;;1.30;;
48845;SDS011;34665;51.886;5.436;2022-07-06T06:04:10;3.43;;;1.40;;
48845;SDS011;34665;51.886;5.436;2022-07-06T06:06:36;5.63;;;1.40;;
48845;SDS011;34665;51.886;5.436;2022-07-06T06:09:02;2.92;;;0.90;;
48845;SDS011;34665;51.886;5.436;2022-07-06T06:11:28;5.88;;;1.05;;
48845;SDS011;34665;51.886;5.436;2022-07-06T06:13:54;1.30;;;0.70;;
48845;SDS011;34665;51.886;5.436;2022-07-06T06:16:20;2.85;;;1.00;;
48845;SDS011;34665;51.886;5.436;2022-07-06T06:18:45;5.18;;;1.77;;
48845;SDS011;34665;51.886;5.436;2022-07-06T06:21:11;3.13;;;1.00;;
48845;SDS011;34665;51.886;5.436;2022-07-06T06:23:37;2.83;;;1.05;;
48845;SDS011;34665;51.886;5.436;2022-07-06T06:26:03;2.55;;;1.20;;
48845;SDS011;34665;51.886;5.436;2022-07-06T06:28:28;2.17;;;0.90;;
48845;SDS011;34665;51.886;5.436;2022-07-06T06:30:53;2.45;;;0.68;;
48845;SDS011;34665;51.886;5.436;2022-07-06T06:33:19;3.92;;;0.80;;
48845;SDS011;34665;51.886;5.436;2022-07-06T06:35:47;4.00;;;1.10;;
48845;SDS011;34665;51.886;5.436;2022-07-06T06:38:15;3.23;;;1.10;;
48845;SDS011;34665;51.886;5.436;2022-07-06T06:40:41;4.03;;;0.98;;
48845;SDS011;34665;51.886;5.436;2022-07-06T06:43:06;3.05;;;0.70;;
48845;SDS011;34665;51.886;5.436;2022-07-06T06:45:36;2.73;;;0.90;;
48845;SDS011;34665;51.886;5.436;2022-07-06T06:48:01;3.22;;;0.80;;
48845;SDS011;34665;51.886;5.436;2022-07-06T06:50:27;1.67;;;0.45;;
48845;SDS011;34665;51.886;5.436;2022-07-06T06:52:53;3.75;;;0.85;;
48845;SDS011;34665;51.886;5.436;2022-07-06T06:55:19;3.00;;;1.13;;
48845;SDS011;34665;51.886;5.436;2022-07-06T06:57:44;3.33;;;0.90;;
48845;SDS011;34665;51.886;5.436;2022-07-06T07:00:10;5.80;;;1.27;;
48845;SDS011;34665;51.886;5.436;2022-07-06T07:02:36;4.55;;;0.75;;
48845;SDS011;34665;51.886;5.436;2022-07-06T07:05:02;9.05;;;1.35;;
48845;SDS011;34665;51.886;5.436;2022-07-06T07:07:28;4.83;;;1.47;;
48845;SDS011;34665;51.886;5.436;2022-07-06T07:09:54;1.65;;;0.60;;
48845;SDS011;34665;51.886;5.436;2022-07-06T07:12:19;10.38;;;1.13;;
48845;SDS011;34665;51.886;5.436;2022-07-06T07:14:45;2.58;;;0.80;;
48845;SDS011;34665;51.886;5.436;2022-07-06T07:17:10;4.90;;;1.33;;
48845;SDS011;34665;51.886;5.436;2022-07-06T07:22:02;3.47;;;0.97;;
48845;SDS011;34665;51.886;5.436;2022-07-06T07:24:28;2.03;;;1.00;;
48845;SDS011;34665;51.886;5.436;2022-07-06T07:26:54;4.10;;;0.77;;
48845;SDS011;34665;51.886;5.436;2022-07-06T07:29:19;19.23;;;1.40;;
48845;SDS011;34665;51.886;5.436;2022-07-06T07:31:45;7.13;;;1.40;;
48845;SDS011;34665;51.886;5.436;2022-07-06T07:34:10;5.72;;;1.00;;
48845;SDS011;34665;51.886;5.436;2022-07-06T07:36:36;9.60;;;1.20;;
48845;SDS011;34665;51.886;5.436;2022-07-06T07:41:28;5.53;;;1.00;;
48845;SDS011;34665;51.886;5.436;2022-07-06T07:43:53;4.38;;;0.88;;
48845;SDS011;34665;51.886;5.436;2022-07-06T07:46:19;5.97;;;1.75;;
48845;SDS011;34665;51.886;5.436;2022-07-06T07:48:44;8.85;;;1.20;;
48845;SDS011;34665;51.886;5.436;2022-07-06T07:51:10;2.20;;;0.85;;
48845;SDS011;34665;51.886;5.436;2022-07-06T07:53:36;5.57;;;0.90;;
48845;SDS011;34665;51.886;5.436;2022-07-06T07:56:01;8.13;;;1.00;;
48845;SDS011;34665;51.886;5.436;2022-07-06T07:58:27;3.75;;;1.30;;
48845;SDS011;34665;51.886;5.436;2022-07-06T08:00:53;9.45;;;3.63;;
48845;SDS011;34665;51.886;5.436;2022-07-06T08:03:18;11.68;;;4.30;;
48845;SDS011;34665;51.886;5.436;2022-07-06T08:05:44;8.53;;;2.47;;
48845;SDS011;34665;51.886;5.436;2022-07-06T08:08:09;5.73;;;2.20;;
48845;SDS011;34665;51.886;5.436;2022-07-06T08:10:35;13.35;;;6.88;;
48845;SDS011;34665;51.886;5.436;2022-07-06T08:13:00;16.67;;;8.38;;
48845;SDS011;34665;51.886;5.436;2022-07-06T08:15:26;8.07;;;2.80;;
48845;SDS011;34665;51.886;5.436;2022-07-06T08:17:51;14.80;;;6.30;;
48845;SDS011;34665;51.886;5.436;2022-07-06T08:20:16;7.53;;;3.50;;
48845;SDS011;34665;51.886;5.436;2022-07-06T08:22:42;5.90;;;0.93;;
48845;SDS011;34665;51.886;5.436;2022-07-06T08:27:34;8.03;;;3.17;;
48845;SDS011;34665;51.886;5.436;2022-07-06T08:30:00;35.72;;;19.35;;
48845;SDS011;34665;51.886;5.436;2022-07-06T08:32:27;32.63;;;16.23;;
48845;SDS011;34665;51.886;5.436;2022-07-06T08:34:52;29.98;;;13.63;;
48845;SDS011;34665;51.886;5.436;2022-07-06T08:37:18;20.30;;;8.15;;
48845;SDS011;34665;51.886;5.436;2022-07-06T08:39:44;12.63;;;4.95;;
48845;SDS011;34665;51.886;5.436;2022-07-06T08:42:09;12.60;;;6.72;;
48845;SDS011;34665;51.886;5.436;2022-07-06T08:47:02;9.27;;;2.37;;
48845;SDS011;34665;51.886;5.436;2022-07-06T08:49:31;3.07;;;0.60;;
48845;SDS011;34665;51.886;5.436;2022-07-06T08:51:59;10.63;;;6.13;;
48845;SDS011;34665;51.886;5.436;2022-07-06T08:54:25;16.63;;;7.23;;
48845;SDS011;34665;51.886;5.436;2022-07-06T08:56:53;3.50;;;1.70;;
48845;SDS011;34665;51.886;5.436;2022-07-06T09:01:45;5.60;;;1.63;;
48845;SDS011;34665;51.886;5.436;2022-07-06T09:04:12;6.17;;;1.20;;
48845;SDS011;34665;51.886;5.436;2022-07-06T09:06:38;12.53;;;6.43;;
48845;SDS011;34665;51.886;5.436;2022-07-06T09:09:07;7.17;;;2.70;;
48845;SDS011;34665;51.886;5.436;2022-07-06T09:11:34;17.33;;;8.33;;
48845;SDS011;34665;51.886;5.436;2022-07-06T09:14:01;4.40;;;2.03;;
48845;SDS011;34665;51.886;5.436;2022-07-06T09:16:27;5.20;;;0.90;;
48845;SDS011;34665;51.886;5.436;2022-07-06T09:18:54;3.80;;;0.87;;
48845;SDS011;34665;51.886;5.436;2022-07-06T09:21:27;4.77;;;0.73;;
48845;SDS011;34665;51.886;5.436;2022-07-06T09:23:57;2.63;;;1.05;;
48845;SDS011;34665;51.886;5.436;2022-07-06T09:26:24;5.70;;;0.87;;
48845;SDS011;34665;51.886;5.436;2022-07-06T09:28:50;2.47;;;0.80;;
48845;SDS011;34665;51.886;5.436;2022-07-06T09:33:55;6.17;;;1.27;;
48845;SDS011;34665;51.886;5.436;2022-07-06T09:41:46;3.33;;;1.70;;
48845;SDS011;34665;51.886;5.436;2022-07-06T09:44:17;2.83;;;1.00;;
48845;SDS011;34665;51.886;5.436;2022-07-06T09:46:45;2.63;;;0.60;;
48845;SDS011;34665;51.886;5.436;2022-07-06T09:49:11;1.70;;;0.63;;
48845;SDS011;34665;51.886;5.436;2022-07-06T09:54:07;1.93;;;0.70;;
48845;SDS011;34665;51.886;5.436;2022-07-06T09:56:37;5.60;;;0.70;;
48845;SDS011;34665;51.886;5.436;2022-07-06T09:59:12;2.13;;;0.67;;
48845;SDS011;34665;51.886;5.436;2022-07-06T10:01:40;3.15;;;0.73;;
48845;SDS011;34665;51.886;5.436;2022-07-06T10:04:07;3.22;;;0.57;;
48845;SDS011;34665;51.886;5.436;2022-07-06T10:06:34;1.38;;;0.47;;
48845;SDS011;34665;51.886;5.436;2022-07-06T10:09:00;2.50;;;0.85;;
48845;SDS011;34665;51.886;5.436;2022-07-06T10:11:26;6.00;;;1.80;;
48845;SDS011;34665;51.886;5.436;2022-07-06T10:13:55;4.55;;;1.55;;
48845;SDS011;34665;51.886;5.436;2022-07-06T10:16:25;4.50;;;1.70;;
48845;SDS011;34665;51.886;5.436;2022-07-06T10:18:52;4.07;;;0.83;;
48845;SDS011;34665;51.886;5.436;2022-07-06T10:21:23;4.40;;;1.88;;
48845;SDS011;34665;51.886;5.436;2022-07-06T10:23:50;4.53;;;0.70;;
48845;SDS011;34665;51.886;5.436;2022-07-06T10:26:17;3.28;;;1.17;;
48845;SDS011;34665;51.886;5.436;2022-07-06T10:28:44;3.03;;;0.80;;
48845;SDS011;34665;51.886;5.436;2022-07-06T10:31:15;3.88;;;1.05;;
48845;SDS011;34665;51.886;5.436;2022-07-06T10:33:43;3.72;;;1.05;;
48845;SDS011;34665;51.886;5.436;2022-07-06T10:36:11;4.03;;;0.80;;
48845;SDS011;34665;51.886;5.436;2022-07-06T10:38:37;5.70;;;0.63;;
48845;SDS011;34665;51.886;5.436;2022-07-06T10:41:04;5.30;;;1.35;;
48845;SDS011;34665;51.886;5.436;2022-07-06T10:43:32;3.00;;;0.63;;
48845;SDS011;34665;51.886;5.436;2022-07-06T10:46:09;25.35;;;11.50;;
48845;SDS011;34665;51.886;5.436;2022-07-06T10:48:45;8.02;;;3.85;;
48845;SDS011;34665;51.886;5.436;2022-07-06T10:51:33;2.13;;;0.80;;
48845;SDS011;34665;51.886;5.436;2022-07-06T10:54:00;14.68;;;6.90;;
48845;SDS011;34665;51.886;5.436;2022-07-06T10:56:32;22.33;;;10.32;;
48845;SDS011;34665;51.886;5.436;2022-07-06T10:59:12;12.93;;;7.30;;
48845;SDS011;34665;51.886;5.436;2022-07-06T11:01:39;5.75;;;1.90;;
48845;SDS011;34665;51.886;5.436;2022-07-06T11:04:06;6.45;;;3.00;;
48845;SDS011;34665;51.886;5.436;2022-07-06T11:06:34;15.80;;;7.55;;
48845;SDS011;34665;51.886;5.436;2022-07-06T11:09:03;22.27;;;9.88;;
48845;SDS011;34665;51.886;5.436;2022-07-06T11:16:32;6.00;;;2.95;;
48845;SDS011;34665;51.886;5.436;2022-07-06T11:24:16;5.00;;;1.98;;
48845;SDS011;34665;51.886;5.436;2022-07-06T11:26:45;3.95;;;1.60;;
48845;SDS011;34665;51.886;5.436;2022-07-06T11:29:13;5.95;;;2.58;;
48845;SDS011;34665;51.886;5.436;2022-07-06T11:31:41;0.95;;;0.40;;
48845;SDS011;34665;51.886;5.436;2022-07-06T11:34:08;3.78;;;0.80;;
48845;SDS011;34665;51.886;5.436;2022-07-06T11:36:37;1.40;;;0.60;;
48845;SDS011;34665;51.886;5.436;2022-07-06T11:39:03;3.08;;;0.60;;
48845;SDS011;34665;51.886;5.436;2022-07-06T11:41:30;4.80;;;1.00;;
48845;SDS011;34665;51.886;5.436;2022-07-06T11:43:56;3.55;;;1.20;;
48845;SDS011;34665;51.886;5.436;2022-07-06T11:46:25;3.92;;;0.90;;
48845;SDS011;34665;51.886;5.436;2022-07-06T11:48:59;2.47;;;0.77;;
48845;SDS011;34665;51.886;5.436;2022-07-06T11:51:28;0.82;;;0.40;;
48845;SDS011;34665;51.886;5.436;2022-07-06T11:53:56;5.80;;;0.80;;
48845;SDS011;34665;51.886;5.436;2022-07-06T11:56:25;3.80;;;0.63;;
48845;SDS011;34665;51.886;5.436;2022-07-06T11:58:59;2.55;;;0.80;;
48845;SDS011;34665;51.886;5.436;2022-07-06T12:01:25;2.13;;;0.47;;
48845;SDS011;34665;51.886;5.436;2022-07-06T12:03:53;1.23;;;0.45;;
48845;SDS011;34665;51.886;5.436;2022-07-06T12:06:22;3.00;;;0.95;;
48845;SDS011;34665;51.886;5.436;2022-07-06T12:08:50;5.30;;;0.90;;
48845;SDS011;34665;51.886;5.436;2022-07-06T12:11:24;3.55;;;0.85;;
48845;SDS011;34665;51.886;5.436;2022-07-06T12:13:51;3.08;;;1.80;;
48845;SDS011;34665;51.886;5.436;2022-07-06T12:16:20;4.00;;;1.10;;
48845;SDS011;34665;51.886;5.436;2022-07-06T12:18:49;3.20;;;0.60;;
48845;SDS011;34665;51.886;5.436;2022-07-06T12:21:17;6.70;;;3.15;;
48845;SDS011;34665;51.886;5.436;2022-07-06T12:23:46;2.92;;;1.40;;
48845;SDS011;34665;51.886;5.436;2022-07-06T12:26:17;6.10;;;1.92;;
48845;SDS011;34665;51.886;5.436;2022-07-06T12:28:45;11.30;;;5.28;;
48845;SDS011;34665;51.886;5.436;2022-07-06T12:31:28;10.20;;;6.60;;
48845;SDS011;34665;51.886;5.436;2022-07-06T12:33:57;4.55;;;1.98;;
48845;SDS011;34665;51.886;5.436;2022-07-06T12:36:22;6.93;;;1.70;;
48845;SDS011;34665;51.886;5.436;2022-07-06T12:38:48;8.82;;;2.17;;
48845;SDS011;34665;51.886;5.436;2022-07-06T12:41:26;16.85;;;8.85;;
48845;SDS011;34665;51.886;5.436;2022-07-06T12:46:37;9.55;;;3.90;;
48845;SDS011;34665;51.886;5.436;2022-07-06T12:49:38;8.07;;;3.75;;
48845;SDS011;34665;51.886;5.436;2022-07-06T12:54:26;2.60;;;0.77;;
48845;SDS011;34665;51.886;5.436;2022-07-06T12:57:04;6.20;;;1.20;;
48845;SDS011;34665;51.886;5.436;2022-07-06T12:59:34;3.17;;;0.80;;
48845;SDS011;34665;51.886;5.436;2022-07-06T13:02:01;3.75;;;0.90;;
48845;SDS011;34665;51.886;5.436;2022-07-06T13:04:28;2.58;;;0.60;;
48845;SDS011;34665;51.886;5.436;2022-07-06T13:06:56;3.03;;;0.60;;
48845;SDS011;34665;51.886;5.436;2022-07-06T13:09:22;2.28;;;0.52;;
48845;SDS011;34665;51.886;5.436;2022-07-06T13:11:48;5.55;;;0.93;;
48845;SDS011;34665;51.886;5.436;2022-07-06T13:14:15;2.08;;;0.88;;
48845;SDS011;34665;51.886;5.436;2022-07-06T13:16:42;4.75;;;0.80;;
48845;SDS011;34665;51.886;5.436;2022-07-06T13:19:11;2.55;;;0.60;;
48845;SDS011;34665;51.886;5.436;2022-07-06T13:21:37;1.80;;;0.60;;
48845;SDS011;34665;51.886;5.436;2022-07-06T13:24:03;3.08;;;1.42;;
48845;SDS011;34665;51.886;5.436;2022-07-06T13:26:29;4.45;;;1.75;;
48845;SDS011;34665;51.886;5.436;2022-07-06T13:28:59;4.65;;;1.85;;
48845;SDS011;34665;51.886;5.436;2022-07-06T13:31:25;5.25;;;1.95;;
48845;SDS011;34665;51.886;5.436;2022-07-06T13:33:51;4.15;;;0.77;;
48845;SDS011;34665;51.886;5.436;2022-07-06T13:36:17;7.55;;;1.25;;
48845;SDS011;34665;51.886;5.436;2022-07-06T13:38:42;3.25;;;1.30;;
48845;SDS011;34665;51.886;5.436;2022-07-06T13:41:07;3.30;;;1.20;;
48845;SDS011;34665;51.886;5.436;2022-07-06T13:43:33;2.45;;;1.10;;
48845;SDS011;34665;51.886;5.436;2022-07-06T13:46:03;3.33;;;0.98;;
48845;SDS011;34665;51.886;5.436;2022-07-06T13:48:30;4.22;;;0.98;;
48845;SDS011;34665;51.886;5.436;2022-07-06T13:50:56;5.30;;;1.98;;
48845;SDS011;34665;51.886;5.436;2022-07-06T13:53:21;4.60;;;1.17;;
48845;SDS011;34665;51.886;5.436;2022-07-06T13:55:46;4.07;;;1.30;;
48845;SDS011;34665;51.886;5.436;2022-07-06T13:58:12;2.80;;;1.20;;
48845;SDS011;34665;51.886;5.436;2022-07-06T14:00:38;2.63;;;1.00;;
48845;SDS011;34665;51.886;5.436;2022-07-06T14:03:03;1.65;;;0.93;;
48845;SDS011;34665;51.886;5.436;2022-07-06T14:05:29;5.10;;;0.98;;
48845;SDS011;34665;51.886;5.436;2022-07-06T14:07:55;4.45;;;1.08;;
48845;SDS011;34665;51.886;5.436;2022-07-06T14:10:20;4.43;;;1.05;;
48845;SDS011;34665;51.886;5.436;2022-07-06T14:12:46;5.90;;;1.10;;
48845;SDS011;34665;51.886;5.436;2022-07-06T14:15:11;3.58;;;1.83;;
48845;SDS011;34665;51.886;5.436;2022-07-06T14:17:37;3.97;;;1.50;;
48845;SDS011;34665;51.886;5.436;2022-07-06T14:20:02;11.43;;;3.95;;
48845;SDS011;34665;51.886;5.436;2022-07-06T14:22:28;6.78;;;2.55;;
48845;SDS011;34665;51.886;5.436;2022-07-06T14:24:54;8.57;;;1.73;;
48845;SDS011;34665;51.886;5.436;2022-07-06T14:27:19;5.03;;;1.20;;
48845;SDS011;34665;51.886;5.436;2022-07-06T14:29:44;2.85;;;1.40;;
48845;SDS011;34665;51.886;5.436;2022-07-06T14:32:10;4.97;;;1.10;;
48845;SDS011;34665;51.886;5.436;2022-07-06T14:34:36;6.65;;;2.10;;
48845;SDS011;34665;51.886;5.436;2022-07-06T14:37:02;6.40;;;2.53;;
48845;SDS011;34665;51.886;5.436;2022-07-06T14:39:27;5.97;;;1.98;;
48845;SDS011;34665;51.886;5.436;2022-07-06T14:41:53;4.90;;;1.33;;
48845;SDS011;34665;51.886;5.436;2022-07-06T14:44:18;6.45;;;1.88;;
48845;SDS011;34665;51.886;5.436;2022-07-06T14:46:43;4.10;;;1.38;;
48845;SDS011;34665;51.886;5.436;2022-07-06T14:49:09;7.33;;;1.50;;
48845;SDS011;34665;51.886;5.436;2022-07-06T14:51:34;5.87;;;1.20;;
48845;SDS011;34665;51.886;5.436;2022-07-06T14:54:00;3.00;;;0.93;;
48845;SDS011;34665;51.886;5.436;2022-07-06T14:58:51;5.90;;;0.73;;
48845;SDS011;34665;51.886;5.436;2022-07-06T15:03:42;11.63;;;1.77;;
48845;SDS011;34665;51.886;5.436;2022-07-06T15:08:32;2.33;;;1.00;;
48845;SDS011;34665;51.886;5.436;2022-07-06T15:13:24;5.20;;;1.10;;
48845;SDS011;34665;51.886;5.436;2022-07-06T15:18:15;4.37;;;1.17;;
48845;SDS011;34665;51.886;5.436;2022-07-06T15:23:05;4.17;;;1.00;;
48845;SDS011;34665;51.886;5.436;2022-07-06T15:27:57;7.53;;;1.70;;
48845;SDS011;34665;51.886;5.436;2022-07-06T15:32:48;2.97;;;1.50;;
48845;SDS011;34665;51.886;5.436;2022-07-06T15:37:39;6.50;;;1.87;;
48845;SDS011;34665;51.886;5.436;2022-07-06T15:40:06;13.63;;;3.17;;
48845;SDS011;34665;51.886;5.436;2022-07-06T15:42:36;6.23;;;2.90;;
48845;SDS011;34665;51.886;5.436;2022-07-06T15:47:28;6.20;;;2.10;;
48845;SDS011;34665;51.886;5.436;2022-07-06T15:52:18;13.17;;;2.47;;
48845;SDS011;34665;51.886;5.436;2022-07-06T15:54:45;4.93;;;1.80;;
48845;SDS011;34665;51.886;5.436;2022-07-06T15:59:35;5.53;;;1.97;;
48845;SDS011;34665;51.886;5.436;2022-07-06T16:04:27;7.37;;;2.30;;
48845;SDS011;34665;51.886;5.436;2022-07-06T16:06:55;4.17;;;1.73;;